sensor_id;sensor_type;location;lat;lon;timestamp;P1;durP1;ratioP1;P2;durP2;ratioP2
61635;SDS011;59438;45.014;39.006;2023-02-28T00:02:00;11.95;;;4.22;;
61635;SDS011;59438;45.014;39.006;2023-02-28T00:04:26;15.57;;;4.50;;
61635;SDS011;59438;45.014;39.006;2023-02-28T00:06:52;8.52;;;3.92;;
61635;SDS011;59438;45.014;39.006;2023-02-28T00:09:19;5.93;;;3.90;;
61635;SDS011;59438;45.014;39.006;2023-02-28T00:11:45;7.68;;;3.92;;
61635;SDS011;59438;45.014;39.006;2023-02-28T00:14:13;6.63;;;3.70;;
61635;SDS011;59438;45.014;39.006;2023-02-28T00:16:39;5.13;;;3.53;;
61635;SDS011;59438;45.014;39.006;2023-02-28T00:19:05;10.35;;;4.10;;
61635;SDS011;59438;45.014;39.006;2023-02-28T00:21:32;9.40;;;3.60;;
61635;SDS011;59438;45.014;39.006;2023-02-28T00:23:58;13.80;;;4.03;;
61635;SDS011;59438;45.014;39.006;2023-02-28T00:26:24;5.15;;;3.50;;
61635;SDS011;59438;45.014;39.006;2023-02-28T00:28:51;8.88;;;4.10;;
61635;SDS011;59438;45.014;39.006;2023-02-28T00:31:19;6.93;;;3.72;;
61635;SDS011;59438;45.014;39.006;2023-02-28T00:33:45;6.82;;;3.90;;
61635;SDS011;59438;45.014;39.006;2023-02-28T00:36:12;7.43;;;4.15;;
61635;SDS011;59438;45.014;39.006;2023-02-28T00:38:38;9.32;;;4.00;;
61635;SDS011;59438;45.014;39.006;2023-02-28T00:41:06;11.63;;;4.50;;
61635;SDS011;59438;45.014;39.006;2023-02-28T00:43:33;10.35;;;4.05;;
61635;SDS011;59438;45.014;39.006;2023-02-28T00:46:00;5.72;;;3.90;;
61635;SDS011;59438;45.014;39.006;2023-02-28T00:48:28;5.57;;;3.70;;
61635;SDS011;59438;45.014;39.006;2023-02-28T00:50:54;8.27;;;4.07;;
61635;SDS011;59438;45.014;39.006;2023-02-28T00:53:21;6.72;;;4.00;;
61635;SDS011;59438;45.014;39.006;2023-02-28T00:55:48;11.82;;;4.68;;
61635;SDS011;59438;45.014;39.006;2023-02-28T00:58:14;10.07;;;4.07;;
61635;SDS011;59438;45.014;39.006;2023-02-28T01:00:41;7.60;;;3.80;;
61635;SDS011;59438;45.014;39.006;2023-02-28T01:03:07;7.60;;;3.83;;
61635;SDS011;59438;45.014;39.006;2023-02-28T01:05:35;6.85;;;4.25;;
61635;SDS011;59438;45.014;39.006;2023-02-28T01:08:01;6.38;;;3.65;;
61635;SDS011;59438;45.014;39.006;2023-02-28T01:10:28;7.53;;;4.03;;
61635;SDS011;59438;45.014;39.006;2023-02-28T01:12:54;5.68;;;3.90;;
61635;SDS011;59438;45.014;39.006;2023-02-28T01:15:20;7.35;;;3.90;;
61635;SDS011;59438;45.014;39.006;2023-02-28T01:17:47;5.55;;;3.97;;
61635;SDS011;59438;45.014;39.006;2023-02-28T01:20:13;8.18;;;4.20;;
61635;SDS011;59438;45.014;39.006;2023-02-28T01:22:41;10.45;;;4.00;;
61635;SDS011;59438;45.014;39.006;2023-02-28T01:25:08;10.93;;;3.90;;
61635;SDS011;59438;45.014;39.006;2023-02-28T01:27:34;6.30;;;3.95;;
61635;SDS011;59438;45.014;39.006;2023-02-28T01:30:00;9.98;;;4.20;;
61635;SDS011;59438;45.014;39.006;2023-02-28T01:32:27;9.00;;;3.85;;
61635;SDS011;59438;45.014;39.006;2023-02-28T01:34:53;17.23;;;4.13;;
61635;SDS011;59438;45.014;39.006;2023-02-28T01:37:20;16.30;;;4.25;;
61635;SDS011;59438;45.014;39.006;2023-02-28T01:39:48;11.90;;;4.10;;
61635;SDS011;59438;45.014;39.006;2023-02-28T01:42:14;11.20;;;4.00;;
61635;SDS011;59438;45.014;39.006;2023-02-28T01:47:46;7.60;;;3.90;;
61635;SDS011;59438;45.014;39.006;2023-02-28T01:50:16;4.95;;;3.70;;
61635;SDS011;59438;45.014;39.006;2023-02-28T01:52:46;7.13;;;4.10;;
61635;SDS011;59438;45.014;39.006;2023-02-28T01:55:16;7.50;;;3.92;;
61635;SDS011;59438;45.014;39.006;2023-02-28T01:57:46;10.43;;;3.83;;
61635;SDS011;59438;45.014;39.006;2023-02-28T02:00:17;8.13;;;4.30;;
61635;SDS011;59438;45.014;39.006;2023-02-28T02:02:47;10.13;;;4.28;;
61635;SDS011;59438;45.014;39.006;2023-02-28T02:05:17;6.88;;;4.00;;
61635;SDS011;59438;45.014;39.006;2023-02-28T02:07:46;8.93;;;3.78;;
61635;SDS011;59438;45.014;39.006;2023-02-28T02:10:15;8.23;;;4.72;;
61635;SDS011;59438;45.014;39.006;2023-02-28T02:12:49;6.78;;;3.60;;
61635;SDS011;59438;45.014;39.006;2023-02-28T02:15:30;10.73;;;3.95;;
61635;SDS011;59438;45.014;39.006;2023-02-28T02:32:49;6.25;;;3.63;;
61635;SDS011;59438;45.014;39.006;2023-02-28T02:35:33;18.02;;;4.00;;
61635;SDS011;59438;45.014;39.006;2023-02-28T02:38:06;7.78;;;3.60;;
61635;SDS011;59438;45.014;39.006;2023-02-28T02:40:41;7.57;;;3.60;;
61635;SDS011;59438;45.014;39.006;2023-02-28T02:43:11;5.70;;;3.60;;
61635;SDS011;59438;45.014;39.006;2023-02-28T02:45:43;6.53;;;3.60;;
61635;SDS011;59438;45.014;39.006;2023-02-28T02:48:15;9.18;;;3.67;;
61635;SDS011;59438;45.014;39.006;2023-02-28T02:50:46;5.80;;;3.53;;
61635;SDS011;59438;45.014;39.006;2023-02-28T02:53:16;8.52;;;3.75;;
61635;SDS011;59438;45.014;39.006;2023-02-28T02:55:48;9.95;;;3.95;;
61635;SDS011;59438;45.014;39.006;2023-02-28T02:58:16;9.75;;;4.35;;
61635;SDS011;59438;45.014;39.006;2023-02-28T03:00:47;4.95;;;3.40;;
61635;SDS011;59438;45.014;39.006;2023-02-28T03:03:18;8.23;;;3.60;;
61635;SDS011;59438;45.014;39.006;2023-02-28T03:05:48;9.68;;;3.72;;
61635;SDS011;59438;45.014;39.006;2023-02-28T03:08:15;9.10;;;4.05;;
61635;SDS011;59438;45.014;39.006;2023-02-28T03:10:43;9.48;;;3.40;;
61635;SDS011;59438;45.014;39.006;2023-02-28T03:16:35;8.93;;;3.60;;
61635;SDS011;59438;45.014;39.006;2023-02-28T03:22:03;8.38;;;3.90;;
61635;SDS011;59438;45.014;39.006;2023-02-28T03:24:41;9.95;;;3.95;;
61635;SDS011;59438;45.014;39.006;2023-02-28T03:27:16;11.27;;;3.70;;
61635;SDS011;59438;45.014;39.006;2023-02-28T03:29:47;13.95;;;3.92;;
61635;SDS011;59438;45.014;39.006;2023-02-28T03:32:23;10.43;;;4.03;;
61635;SDS011;59438;45.014;39.006;2023-02-28T03:34:55;10.50;;;3.88;;
61635;SDS011;59438;45.014;39.006;2023-02-28T03:37:26;9.75;;;3.97;;
61635;SDS011;59438;45.014;39.006;2023-02-28T03:39:56;12.05;;;3.80;;
61635;SDS011;59438;45.014;39.006;2023-02-28T03:42:26;11.38;;;4.47;;
61635;SDS011;59438;45.014;39.006;2023-02-28T03:44:57;7.13;;;3.70;;
61635;SDS011;59438;45.014;39.006;2023-02-28T03:47:27;9.13;;;3.70;;
61635;SDS011;59438;45.014;39.006;2023-02-28T03:49:59;10.52;;;3.88;;
61635;SDS011;59438;45.014;39.006;2023-02-28T03:52:31;8.13;;;3.92;;
61635;SDS011;59438;45.014;39.006;2023-02-28T03:55:01;12.48;;;4.03;;
61635;SDS011;59438;45.014;39.006;2023-02-28T03:57:32;9.43;;;3.80;;
61635;SDS011;59438;45.014;39.006;2023-02-28T04:00:04;13.52;;;4.43;;
61635;SDS011;59438;45.014;39.006;2023-02-28T04:02:34;9.32;;;3.90;;
61635;SDS011;59438;45.014;39.006;2023-02-28T04:05:00;9.27;;;4.45;;
61635;SDS011;59438;45.014;39.006;2023-02-28T04:07:28;10.35;;;4.18;;
61635;SDS011;59438;45.014;39.006;2023-02-28T04:09:56;10.57;;;4.50;;
61635;SDS011;59438;45.014;39.006;2023-02-28T04:12:23;9.55;;;4.32;;
61635;SDS011;59438;45.014;39.006;2023-02-28T04:14:50;10.32;;;4.78;;
61635;SDS011;59438;45.014;39.006;2023-02-28T04:17:16;12.38;;;4.93;;
61635;SDS011;59438;45.014;39.006;2023-02-28T04:19:43;15.23;;;4.80;;
61635;SDS011;59438;45.014;39.006;2023-02-28T04:22:09;30.88;;;6.00;;
61635;SDS011;59438;45.014;39.006;2023-02-28T04:24:37;20.88;;;5.38;;
61635;SDS011;59438;45.014;39.006;2023-02-28T04:27:03;13.95;;;4.53;;
61635;SDS011;59438;45.014;39.006;2023-02-28T04:29:30;10.55;;;4.20;;
61635;SDS011;59438;45.014;39.006;2023-02-28T04:31:57;19.77;;;4.80;;
61635;SDS011;59438;45.014;39.006;2023-02-28T04:34:25;15.82;;;5.30;;
61635;SDS011;59438;45.014;39.006;2023-02-28T04:36:52;7.55;;;4.55;;
61635;SDS011;59438;45.014;39.006;2023-02-28T04:39:18;14.85;;;4.82;;
61635;SDS011;59438;45.014;39.006;2023-02-28T04:41:47;11.80;;;4.35;;
61635;SDS011;59438;45.014;39.006;2023-02-28T04:44:13;8.38;;;4.03;;
61635;SDS011;59438;45.014;39.006;2023-02-28T04:46:40;8.30;;;4.35;;
61635;SDS011;59438;45.014;39.006;2023-02-28T04:49:07;11.98;;;4.15;;
61635;SDS011;59438;45.014;39.006;2023-02-28T04:51:35;9.15;;;4.22;;
61635;SDS011;59438;45.014;39.006;2023-02-28T04:54:01;12.93;;;4.65;;
61635;SDS011;59438;45.014;39.006;2023-02-28T04:56:28;14.40;;;5.00;;
61635;SDS011;59438;45.014;39.006;2023-02-28T04:58:56;14.80;;;4.93;;
61635;SDS011;59438;45.014;39.006;2023-02-28T05:01:23;14.68;;;4.38;;
61635;SDS011;59438;45.014;39.006;2023-02-28T05:03:50;9.77;;;4.30;;
61635;SDS011;59438;45.014;39.006;2023-02-28T05:06:18;10.63;;;4.47;;
61635;SDS011;59438;45.014;39.006;2023-02-28T05:08:49;11.60;;;4.55;;
61635;SDS011;59438;45.014;39.006;2023-02-28T05:11:17;16.42;;;4.80;;
61635;SDS011;59438;45.014;39.006;2023-02-28T05:13:45;11.45;;;5.03;;
61635;SDS011;59438;45.014;39.006;2023-02-28T05:16:13;10.48;;;5.57;;
61635;SDS011;59438;45.014;39.006;2023-02-28T05:18:40;11.65;;;6.25;;
61635;SDS011;59438;45.014;39.006;2023-02-28T05:21:12;14.98;;;5.60;;
61635;SDS011;59438;45.014;39.006;2023-02-28T05:23:50;18.75;;;5.35;;
61635;SDS011;59438;45.014;39.006;2023-02-28T05:26:16;21.23;;;9.55;;
61635;SDS011;59438;45.014;39.006;2023-02-28T05:28:43;13.68;;;7.55;;
61635;SDS011;59438;45.014;39.006;2023-02-28T05:31:09;13.10;;;4.97;;
61635;SDS011;59438;45.014;39.006;2023-02-28T05:33:38;11.93;;;4.47;;
61635;SDS011;59438;45.014;39.006;2023-02-28T05:36:05;15.15;;;4.85;;
61635;SDS011;59438;45.014;39.006;2023-02-28T05:38:32;12.02;;;4.60;;
61635;SDS011;59438;45.014;39.006;2023-02-28T05:40:59;15.25;;;4.80;;
61635;SDS011;59438;45.014;39.006;2023-02-28T05:43:25;16.38;;;4.95;;
61635;SDS011;59438;45.014;39.006;2023-02-28T05:45:52;21.15;;;4.78;;
61635;SDS011;59438;45.014;39.006;2023-02-28T05:48:18;15.65;;;4.97;;
61635;SDS011;59438;45.014;39.006;2023-02-28T05:50:46;17.00;;;4.60;;
61635;SDS011;59438;45.014;39.006;2023-02-28T05:53:12;7.45;;;4.30;;
61635;SDS011;59438;45.014;39.006;2023-02-28T05:55:38;17.50;;;4.60;;
61635;SDS011;59438;45.014;39.006;2023-02-28T05:58:05;11.38;;;4.68;;
61635;SDS011;59438;45.014;39.006;2023-02-28T06:00:31;13.70;;;5.25;;
61635;SDS011;59438;45.014;39.006;2023-02-28T06:02:57;18.67;;;4.68;;
61635;SDS011;59438;45.014;39.006;2023-02-28T06:05:24;15.00;;;5.85;;
61635;SDS011;59438;45.014;39.006;2023-02-28T06:07:52;15.68;;;5.00;;
61635;SDS011;59438;45.014;39.006;2023-02-28T06:10:18;12.98;;;4.90;;
61635;SDS011;59438;45.014;39.006;2023-02-28T06:12:45;19.13;;;5.35;;
61635;SDS011;59438;45.014;39.006;2023-02-28T06:15:12;19.00;;;5.45;;
61635;SDS011;59438;45.014;39.006;2023-02-28T06:17:39;15.43;;;5.03;;
61635;SDS011;59438;45.014;39.006;2023-02-28T06:20:06;19.88;;;5.30;;
61635;SDS011;59438;45.014;39.006;2023-02-28T06:22:34;13.20;;;5.28;;
61635;SDS011;59438;45.014;39.006;2023-02-28T06:25:02;14.13;;;5.20;;
61635;SDS011;59438;45.014;39.006;2023-02-28T06:27:30;21.17;;;6.82;;
61635;SDS011;59438;45.014;39.006;2023-02-28T06:29:56;17.48;;;5.05;;
61635;SDS011;59438;45.014;39.006;2023-02-28T06:32:23;16.95;;;5.20;;
61635;SDS011;59438;45.014;39.006;2023-02-28T06:34:49;20.63;;;5.18;;
61635;SDS011;59438;45.014;39.006;2023-02-28T06:37:16;18.08;;;4.95;;
61635;SDS011;59438;45.014;39.006;2023-02-28T06:39:43;15.63;;;5.38;;
61635;SDS011;59438;45.014;39.006;2023-02-28T06:42:11;17.73;;;4.85;;
61635;SDS011;59438;45.014;39.006;2023-02-28T06:44:38;16.40;;;5.97;;
61635;SDS011;59438;45.014;39.006;2023-02-28T06:47:05;14.57;;;6.07;;
61635;SDS011;59438;45.014;39.006;2023-02-28T06:49:32;19.05;;;5.95;;
61635;SDS011;59438;45.014;39.006;2023-02-28T06:51:59;17.52;;;6.85;;
61635;SDS011;59438;45.014;39.006;2023-02-28T06:54:26;18.95;;;6.43;;
61635;SDS011;59438;45.014;39.006;2023-02-28T06:56:52;11.52;;;6.00;;
61635;SDS011;59438;45.014;39.006;2023-02-28T06:59:20;17.65;;;5.80;;
61635;SDS011;59438;45.014;39.006;2023-02-28T07:01:47;14.68;;;6.43;;
61635;SDS011;59438;45.014;39.006;2023-02-28T07:04:14;15.00;;;5.72;;
61635;SDS011;59438;45.014;39.006;2023-02-28T07:06:40;12.75;;;6.22;;
61635;SDS011;59438;45.014;39.006;2023-02-28T07:09:07;14.48;;;6.05;;
61635;SDS011;59438;45.014;39.006;2023-02-28T07:11:33;17.00;;;5.63;;
61635;SDS011;59438;45.014;39.006;2023-02-28T07:13:59;20.50;;;5.75;;
61635;SDS011;59438;45.014;39.006;2023-02-28T07:16:27;12.70;;;5.80;;
61635;SDS011;59438;45.014;39.006;2023-02-28T07:18:53;16.92;;;5.38;;
61635;SDS011;59438;45.014;39.006;2023-02-28T07:21:20;13.75;;;5.07;;
61635;SDS011;59438;45.014;39.006;2023-02-28T07:23:46;12.65;;;6.50;;
61635;SDS011;59438;45.014;39.006;2023-02-28T07:26:14;14.93;;;5.30;;
61635;SDS011;59438;45.014;39.006;2023-02-28T07:28:42;15.13;;;5.40;;
61635;SDS011;59438;45.014;39.006;2023-02-28T07:31:09;20.80;;;5.25;;
61635;SDS011;59438;45.014;39.006;2023-02-28T07:33:37;13.38;;;5.30;;
61635;SDS011;59438;45.014;39.006;2023-02-28T07:36:05;10.13;;;5.05;;
61635;SDS011;59438;45.014;39.006;2023-02-28T07:38:33;13.02;;;5.47;;
61635;SDS011;59438;45.014;39.006;2023-02-28T07:41:00;10.43;;;5.10;;
61635;SDS011;59438;45.014;39.006;2023-02-28T07:43:26;13.57;;;5.20;;
61635;SDS011;59438;45.014;39.006;2023-02-28T07:45:53;10.30;;;4.90;;
61635;SDS011;59438;45.014;39.006;2023-02-28T07:48:19;11.63;;;5.20;;
61635;SDS011;59438;45.014;39.006;2023-02-28T07:50:49;15.15;;;5.05;;
61635;SDS011;59438;45.014;39.006;2023-02-28T07:53:20;13.75;;;5.03;;
61635;SDS011;59438;45.014;39.006;2023-02-28T07:55:47;12.73;;;4.97;;
61635;SDS011;59438;45.014;39.006;2023-02-28T07:58:14;10.77;;;4.70;;
61635;SDS011;59438;45.014;39.006;2023-02-28T08:00:40;12.52;;;4.95;;
61635;SDS011;59438;45.014;39.006;2023-02-28T08:03:07;9.45;;;5.00;;
61635;SDS011;59438;45.014;39.006;2023-02-28T08:05:38;12.93;;;5.30;;
61635;SDS011;59438;45.014;39.006;2023-02-28T08:08:06;18.17;;;6.72;;
61635;SDS011;59438;45.014;39.006;2023-02-28T08:10:32;18.80;;;5.25;;
61635;SDS011;59438;45.014;39.006;2023-02-28T08:12:59;18.30;;;6.25;;
61635;SDS011;59438;45.014;39.006;2023-02-28T08:15:26;18.38;;;6.40;;
61635;SDS011;59438;45.014;39.006;2023-02-28T08:17:52;13.45;;;5.50;;
61635;SDS011;59438;45.014;39.006;2023-02-28T08:20:18;12.63;;;5.65;;
61635;SDS011;59438;45.014;39.006;2023-02-28T08:22:45;12.65;;;5.50;;
61635;SDS011;59438;45.014;39.006;2023-02-28T08:25:15;14.63;;;5.45;;
61635;SDS011;59438;45.014;39.006;2023-02-28T08:27:41;16.02;;;5.53;;
61635;SDS011;59438;45.014;39.006;2023-02-28T08:30:09;17.13;;;5.43;;
61635;SDS011;59438;45.014;39.006;2023-02-28T08:32:37;10.23;;;5.07;;
61635;SDS011;59438;45.014;39.006;2023-02-28T08:35:04;18.80;;;5.72;;
61635;SDS011;59438;45.014;39.006;2023-02-28T08:37:31;10.48;;;5.45;;
61635;SDS011;59438;45.014;39.006;2023-02-28T08:39:58;13.63;;;5.97;;
61635;SDS011;59438;45.014;39.006;2023-02-28T08:42:26;15.07;;;5.88;;
61635;SDS011;59438;45.014;39.006;2023-02-28T08:44:52;12.73;;;5.43;;
61635;SDS011;59438;45.014;39.006;2023-02-28T08:47:19;12.88;;;5.65;;
61635;SDS011;59438;45.014;39.006;2023-02-28T08:49:45;15.35;;;5.95;;
61635;SDS011;59438;45.014;39.006;2023-02-28T08:52:14;14.95;;;5.72;;
61635;SDS011;59438;45.014;39.006;2023-02-28T08:54:41;16.30;;;5.70;;
61635;SDS011;59438;45.014;39.006;2023-02-28T08:57:07;17.38;;;6.28;;
61635;SDS011;59438;45.014;39.006;2023-02-28T08:59:35;13.90;;;6.05;;
61635;SDS011;59438;45.014;39.006;2023-02-28T09:02:02;15.45;;;6.72;;
61635;SDS011;59438;45.014;39.006;2023-02-28T09:04:29;18.27;;;6.95;;
61635;SDS011;59438;45.014;39.006;2023-02-28T09:06:55;18.30;;;6.97;;
61635;SDS011;59438;45.014;39.006;2023-02-28T09:09:22;20.88;;;7.07;;
61635;SDS011;59438;45.014;39.006;2023-02-28T09:11:48;18.38;;;7.85;;
61635;SDS011;59438;45.014;39.006;2023-02-28T09:14:15;14.43;;;7.20;;
61635;SDS011;59438;45.014;39.006;2023-02-28T09:16:42;20.00;;;7.50;;
61635;SDS011;59438;45.014;39.006;2023-02-28T09:19:10;15.57;;;8.00;;
61635;SDS011;59438;45.014;39.006;2023-02-28T09:21:37;20.70;;;7.50;;
61635;SDS011;59438;45.014;39.006;2023-02-28T09:24:12;17.63;;;7.50;;
61635;SDS011;59438;45.014;39.006;2023-02-28T09:26:38;18.52;;;7.88;;
61635;SDS011;59438;45.014;39.006;2023-02-28T09:29:04;16.77;;;7.70;;
61635;SDS011;59438;45.014;39.006;2023-02-28T09:31:31;20.98;;;7.95;;
61635;SDS011;59438;45.014;39.006;2023-02-28T09:33:59;16.90;;;6.55;;
61635;SDS011;59438;45.014;39.006;2023-02-28T09:36:26;15.98;;;7.55;;
61635;SDS011;59438;45.014;39.006;2023-02-28T09:38:53;17.65;;;7.30;;
61635;SDS011;59438;45.014;39.006;2023-02-28T09:41:20;20.55;;;7.13;;
61635;SDS011;59438;45.014;39.006;2023-02-28T09:43:49;19.63;;;7.70;;
61635;SDS011;59438;45.014;39.006;2023-02-28T09:46:32;15.25;;;7.07;;
61635;SDS011;59438;45.014;39.006;2023-02-28T09:49:02;14.90;;;6.95;;
61635;SDS011;59438;45.014;39.006;2023-02-28T09:51:37;16.58;;;7.38;;
61635;SDS011;59438;45.014;39.006;2023-02-28T09:54:12;14.85;;;7.60;;
61635;SDS011;59438;45.014;39.006;2023-02-28T09:56:43;16.45;;;7.35;;
61635;SDS011;59438;45.014;39.006;2023-02-28T09:59:12;19.55;;;7.25;;
61635;SDS011;59438;45.014;39.006;2023-02-28T10:01:47;13.32;;;6.93;;
61635;SDS011;59438;45.014;39.006;2023-02-28T10:04:26;14.13;;;7.75;;
61635;SDS011;59438;45.014;39.006;2023-02-28T10:07:06;13.98;;;7.22;;
61635;SDS011;59438;45.014;39.006;2023-02-28T10:09:42;15.15;;;7.88;;
61635;SDS011;59438;45.014;39.006;2023-02-28T10:12:11;18.48;;;8.23;;
61635;SDS011;59438;45.014;39.006;2023-02-28T10:14:39;13.85;;;7.80;;
61635;SDS011;59438;45.014;39.006;2023-02-28T10:17:11;16.67;;;8.38;;
61635;SDS011;59438;45.014;39.006;2023-02-28T10:19:43;16.95;;;8.20;;
61635;SDS011;59438;45.014;39.006;2023-02-28T10:22:15;13.73;;;7.78;;
61635;SDS011;59438;45.014;39.006;2023-02-28T10:24:47;14.40;;;8.00;;
61635;SDS011;59438;45.014;39.006;2023-02-28T10:27:16;12.80;;;8.13;;
61635;SDS011;59438;45.014;39.006;2023-02-28T10:29:45;20.30;;;9.35;;
61635;SDS011;59438;45.014;39.006;2023-02-28T10:32:14;18.05;;;9.50;;
61635;SDS011;59438;45.014;39.006;2023-02-28T10:34:44;16.90;;;9.07;;
61635;SDS011;59438;45.014;39.006;2023-02-28T10:37:16;46.58;;;20.50;;
61635;SDS011;59438;45.014;39.006;2023-02-28T10:39:45;18.70;;;10.38;;
61635;SDS011;59438;45.014;39.006;2023-02-28T10:42:18;16.02;;;10.57;;
61635;SDS011;59438;45.014;39.006;2023-02-28T10:44:47;20.38;;;10.70;;
61635;SDS011;59438;45.014;39.006;2023-02-28T10:47:14;19.33;;;10.60;;
61635;SDS011;59438;45.014;39.006;2023-02-28T10:49:47;22.65;;;9.63;;
61635;SDS011;59438;45.014;39.006;2023-02-28T10:52:23;18.25;;;9.68;;
61635;SDS011;59438;45.014;39.006;2023-02-28T10:55:13;15.40;;;8.98;;
61635;SDS011;59438;45.014;39.006;2023-02-28T10:57:44;15.60;;;8.85;;
61635;SDS011;59438;45.014;39.006;2023-02-28T11:00:13;21.98;;;10.05;;
61635;SDS011;59438;45.014;39.006;2023-02-28T11:02:42;17.13;;;9.52;;
61635;SDS011;59438;45.014;39.006;2023-02-28T11:05:30;20.73;;;10.00;;
61635;SDS011;59438;45.014;39.006;2023-02-28T11:08:01;19.88;;;8.82;;
61635;SDS011;59438;45.014;39.006;2023-02-28T11:10:31;16.48;;;9.50;;
61635;SDS011;59438;45.014;39.006;2023-02-28T11:12:58;18.80;;;10.13;;
61635;SDS011;59438;45.014;39.006;2023-02-28T11:15:25;21.33;;;10.00;;
61635;SDS011;59438;45.014;39.006;2023-02-28T11:17:54;16.73;;;9.77;;
61635;SDS011;59438;45.014;39.006;2023-02-28T11:20:22;15.88;;;9.00;;
61635;SDS011;59438;45.014;39.006;2023-02-28T11:22:52;16.77;;;9.95;;
61635;SDS011;59438;45.014;39.006;2023-02-28T11:25:22;16.98;;;9.82;;
61635;SDS011;59438;45.014;39.006;2023-02-28T11:27:51;18.23;;;10.05;;
61635;SDS011;59438;45.014;39.006;2023-02-28T11:30:26;17.38;;;9.60;;
61635;SDS011;59438;45.014;39.006;2023-02-28T11:32:57;19.95;;;10.05;;
61635;SDS011;59438;45.014;39.006;2023-02-28T11:35:24;25.08;;;10.70;;
61635;SDS011;59438;45.014;39.006;2023-02-28T11:37:58;21.05;;;10.57;;
61635;SDS011;59438;45.014;39.006;2023-02-28T11:40:26;20.58;;;9.40;;
61635;SDS011;59438;45.014;39.006;2023-02-28T11:42:59;37.10;;;14.55;;
61635;SDS011;59438;45.014;39.006;2023-02-28T11:45:39;23.80;;;11.45;;
61635;SDS011;59438;45.014;39.006;2023-02-28T11:48:13;20.60;;;9.35;;
61635;SDS011;59438;45.014;39.006;2023-02-28T11:50:47;16.83;;;9.88;;
61635;SDS011;59438;45.014;39.006;2023-02-28T11:53:24;59.08;;;24.33;;
61635;SDS011;59438;45.014;39.006;2023-02-28T11:56:06;41.55;;;17.30;;
61635;SDS011;59438;45.014;39.006;2023-02-28T11:58:38;37.50;;;19.27;;
61635;SDS011;59438;45.014;39.006;2023-02-28T12:01:36;19.15;;;10.32;;
61635;SDS011;59438;45.014;39.006;2023-02-28T12:04:16;18.08;;;10.82;;
61635;SDS011;59438;45.014;39.006;2023-02-28T12:06:50;24.98;;;12.07;;
61635;SDS011;59438;45.014;39.006;2023-02-28T12:12:25;26.63;;;11.05;;
61635;SDS011;59438;45.014;39.006;2023-02-28T12:15:27;16.23;;;9.38;;
61635;SDS011;59438;45.014;39.006;2023-02-28T12:18:27;46.05;;;18.20;;
61635;SDS011;59438;45.014;39.006;2023-02-28T12:58:53;17.45;;;9.13;;
61635;SDS011;59438;45.014;39.006;2023-02-28T13:01:31;20.55;;;9.43;;
61635;SDS011;59438;45.014;39.006;2023-02-28T13:07:19;17.80;;;9.00;;
61635;SDS011;59438;45.014;39.006;2023-02-28T13:10:11;17.75;;;9.40;;
61635;SDS011;59438;45.014;39.006;2023-02-28T13:12:38;18.48;;;8.55;;
61635;SDS011;59438;45.014;39.006;2023-02-28T13:15:18;19.02;;;9.40;;
61635;SDS011;59438;45.014;39.006;2023-02-28T13:17:47;18.92;;;8.88;;
61635;SDS011;59438;45.014;39.006;2023-02-28T13:20:16;16.83;;;8.88;;
61635;SDS011;59438;45.014;39.006;2023-02-28T13:22:44;13.45;;;8.45;;
61635;SDS011;59438;45.014;39.006;2023-02-28T13:31:32;26.10;;;9.80;;
61635;SDS011;59438;45.014;39.006;2023-02-28T13:34:24;21.23;;;10.63;;
61635;SDS011;59438;45.014;39.006;2023-02-28T13:36:51;21.00;;;10.32;;
61635;SDS011;59438;45.014;39.006;2023-02-28T13:39:56;19.23;;;9.77;;
61635;SDS011;59438;45.014;39.006;2023-02-28T13:42:31;19.45;;;9.60;;
61635;SDS011;59438;45.014;39.006;2023-02-28T13:47:53;22.27;;;10.00;;
61635;SDS011;59438;45.014;39.006;2023-02-28T13:50:23;21.92;;;10.30;;
61635;SDS011;59438;45.014;39.006;2023-02-28T13:52:57;19.15;;;10.15;;
61635;SDS011;59438;45.014;39.006;2023-02-28T13:55:42;23.60;;;11.32;;
61635;SDS011;59438;45.014;39.006;2023-02-28T13:58:19;22.40;;;10.48;;
61635;SDS011;59438;45.014;39.006;2023-02-28T14:01:02;21.02;;;10.93;;
61635;SDS011;59438;45.014;39.006;2023-02-28T14:03:52;22.73;;;11.13;;
61635;SDS011;59438;45.014;39.006;2023-02-28T14:06:32;29.10;;;12.65;;
61635;SDS011;59438;45.014;39.006;2023-02-28T14:09:00;42.60;;;18.77;;
61635;SDS011;59438;45.014;39.006;2023-02-28T14:11:29;41.17;;;16.77;;
61635;SDS011;59438;45.014;39.006;2023-02-28T14:13:57;27.58;;;12.25;;
61635;SDS011;59438;45.014;39.006;2023-02-28T14:16:25;28.63;;;12.43;;
61635;SDS011;59438;45.014;39.006;2023-02-28T14:18:57;29.00;;;12.70;;
61635;SDS011;59438;45.014;39.006;2023-02-28T14:21:27;26.52;;;12.65;;
61635;SDS011;59438;45.014;39.006;2023-02-28T14:24:00;19.63;;;9.85;;
61635;SDS011;59438;45.014;39.006;2023-02-28T14:26:56;27.17;;;13.30;;
61635;SDS011;59438;45.014;39.006;2023-02-28T14:32:45;29.80;;;13.27;;
61635;SDS011;59438;45.014;39.006;2023-02-28T14:35:21;24.77;;;12.50;;
61635;SDS011;59438;45.014;39.006;2023-02-28T14:38:02;24.77;;;12.52;;
61635;SDS011;59438;45.014;39.006;2023-02-28T14:40:31;24.30;;;13.02;;
61635;SDS011;59438;45.014;39.006;2023-02-28T14:43:00;36.70;;;12.82;;
61635;SDS011;59438;45.014;39.006;2023-02-28T14:45:28;27.77;;;12.55;;
61635;SDS011;59438;45.014;39.006;2023-02-28T14:47:57;28.35;;;12.38;;
61635;SDS011;59438;45.014;39.006;2023-02-28T14:50:27;29.85;;;12.80;;
61635;SDS011;59438;45.014;39.006;2023-02-28T14:52:56;24.48;;;11.68;;
61635;SDS011;59438;45.014;39.006;2023-02-28T14:55:24;22.40;;;10.27;;
61635;SDS011;59438;45.014;39.006;2023-02-28T14:57:53;23.63;;;10.23;;
61635;SDS011;59438;45.014;39.006;2023-02-28T15:00:21;25.55;;;11.82;;
61635;SDS011;59438;45.014;39.006;2023-02-28T15:02:49;28.15;;;13.13;;
61635;SDS011;59438;45.014;39.006;2023-02-28T15:05:19;31.05;;;13.50;;
61635;SDS011;59438;45.014;39.006;2023-02-28T15:08:00;31.48;;;13.68;;
61635;SDS011;59438;45.014;39.006;2023-02-28T15:10:28;28.00;;;13.88;;
61635;SDS011;59438;45.014;39.006;2023-02-28T15:12:56;26.30;;;12.93;;
61635;SDS011;59438;45.014;39.006;2023-02-28T15:15:24;30.92;;;13.35;;
61635;SDS011;59438;45.014;39.006;2023-02-28T15:17:56;29.95;;;13.57;;
61635;SDS011;59438;45.014;39.006;2023-02-28T15:20:24;32.80;;;13.57;;
61635;SDS011;59438;45.014;39.006;2023-02-28T15:22:54;30.90;;;13.25;;
61635;SDS011;59438;45.014;39.006;2023-02-28T15:25:22;28.77;;;13.77;;
61635;SDS011;59438;45.014;39.006;2023-02-28T15:27:50;27.83;;;11.15;;
61635;SDS011;59438;45.014;39.006;2023-02-28T15:33:07;25.50;;;11.63;;
61635;SDS011;59438;45.014;39.006;2023-02-28T15:35:44;26.63;;;11.52;;
61635;SDS011;59438;45.014;39.006;2023-02-28T15:38:17;28.30;;;11.10;;
61635;SDS011;59438;45.014;39.006;2023-02-28T15:40:49;29.90;;;12.15;;
61635;SDS011;59438;45.014;39.006;2023-02-28T15:43:18;28.17;;;11.93;;
61635;SDS011;59438;45.014;39.006;2023-02-28T15:45:50;31.02;;;12.60;;
61635;SDS011;59438;45.014;39.006;2023-02-28T15:48:19;29.42;;;12.10;;
61635;SDS011;59438;45.014;39.006;2023-02-28T15:50:48;31.55;;;12.43;;
61635;SDS011;59438;45.014;39.006;2023-02-28T15:53:19;20.60;;;10.60;;
61635;SDS011;59438;45.014;39.006;2023-02-28T15:55:52;28.95;;;11.63;;
61635;SDS011;59438;45.014;39.006;2023-02-28T15:58:21;26.80;;;11.43;;
61635;SDS011;59438;45.014;39.006;2023-02-28T16:00:59;27.48;;;12.60;;